createdAt,value
2022-11-18T00:05:20.509Z,18.52
2022-11-18T00:10:42.259Z,18.49
2022-11-18T00:16:07.125Z,18.46
2022-11-18T00:21:29.114Z,18.43
2022-11-18T00:26:50.992Z,18.41
2022-11-18T00:32:12.658Z,18.37
2022-11-18T00:37:34.363Z,18.35
2022-11-18T00:42:56.512Z,18.33
2022-11-18T00:48:21.816Z,18.33
2022-11-18T00:53:44.162Z,18.31
2022-11-18T00:59:06.067Z,18.28
2022-11-18T01:04:27.760Z,18.27
2022-11-18T01:09:49.416Z,18.25
2022-11-18T01:15:11.123Z,18.24
2022-11-18T01:20:33.725Z,18.23
2022-11-18T01:25:55.762Z,18.21
2022-11-18T01:31:19.435Z,18.20
2022-11-18T01:36:41.066Z,18.18
2022-11-18T01:42:02.728Z,18.18
2022-11-18T01:47:28.927Z,18.18
2022-11-18T01:52:52.467Z,18.15
2022-11-18T01:58:31.140Z,18.16
2022-11-18T02:03:54.092Z,18.14
2022-11-18T02:09:17.282Z,18.12
2022-11-18T02:14:44.014Z,18.11
2022-11-18T02:20:26.607Z,18.10
2022-11-18T02:26:00.536Z,18.10
2022-11-18T02:31:34.674Z,18.09
2022-11-18T02:37:15.130Z,18.06
2022-11-18T02:42:40.309Z,18.05
2022-11-18T02:48:10.438Z,18.04
2022-11-18T02:53:33.921Z,18.02
2022-11-18T02:58:55.632Z,18.02
2022-11-18T03:04:18.697Z,18.01
2022-11-18T03:09:44.416Z,18.00
2022-11-18T03:15:35.260Z,18.00
2022-11-18T03:21:08.502Z,17.98
2022-11-18T03:26:33.791Z,17.97
2022-11-18T03:32:04.831Z,17.96
2022-11-18T03:37:28.859Z,17.96
2022-11-18T03:42:56.604Z,17.95
2022-11-18T03:48:26.716Z,17.95
2022-11-18T03:53:56.912Z,17.95
2022-11-18T03:59:24.482Z,17.93
2022-11-18T04:04:49.323Z,17.92
2022-11-18T04:10:17.885Z,17.91
2022-11-18T04:15:41.904Z,17.88
2022-11-18T04:21:03.602Z,17.89
2022-11-18T04:26:25.262Z,17.89
2022-11-18T04:31:46.914Z,17.88
2022-11-18T04:37:08.590Z,17.86
2022-11-18T04:42:30.508Z,17.85
2022-11-18T04:47:52.248Z,17.84
2022-11-18T04:53:13.904Z,17.83
2022-11-18T04:58:35.559Z,17.82
2022-11-18T05:03:57.507Z,17.81
2022-11-18T05:09:20.556Z,17.80
2022-11-18T05:14:48.168Z,17.80
2022-11-18T05:20:13.064Z,17.79
2022-11-18T05:25:36.118Z,17.78
2022-11-18T05:30:57.850Z,17.77
2022-11-18T05:36:21.255Z,17.76
2022-11-18T05:42:01.886Z,17.74
2022-11-18T05:47:25.140Z,17.74
2022-11-18T05:52:46.816Z,17.73
2022-11-18T05:58:08.514Z,17.73
2022-11-18T06:03:33.748Z,17.73
2022-11-18T06:09:04.900Z,17.82
2022-11-18T06:14:35.392Z,18.17
2022-11-18T06:19:58.273Z,18.53
2022-11-18T06:25:20.330Z,18.76
2022-11-18T06:30:41.986Z,18.91
2022-11-18T06:36:03.903Z,18.97
2022-11-18T06:41:25.664Z,18.95
2022-11-18T06:46:56.406Z,18.90
2022-11-18T06:52:18.065Z,18.84
2022-11-18T06:57:39.700Z,18.77
2022-11-18T07:03:02.773Z,18.70
2022-11-18T07:08:24.538Z,18.64
2022-11-18T07:13:47.267Z,18.60
2022-11-18T07:19:11.463Z,18.71
2022-11-18T07:24:33.221Z,18.73
2022-11-18T07:29:54.957Z,18.98
2022-11-18T07:35:19.024Z,19.14
2022-11-18T07:40:40.873Z,19.78
2022-11-18T07:46:19.603Z,20.03
2022-11-18T07:51:41.354Z,20.03
2022-11-18T07:57:03.022Z,19.78
2022-11-18T08:02:24.744Z,19.49
2022-11-18T08:07:46.558Z,19.13
2022-11-18T08:13:08.325Z,19.03
2022-11-18T08:18:31.327Z,18.84
2022-11-18T08:23:55.189Z,18.66
2022-11-18T08:29:21.814Z,18.53
2022-11-18T08:34:46.349Z,18.44
2022-11-18T08:40:08.577Z,18.34
2022-11-18T08:45:30.257Z,18.27
2022-11-18T08:50:52.873Z,18.19
2022-11-18T08:56:23.784Z,18.14
2022-11-18T09:01:45.644Z,18.08
2022-11-18T09:07:07.473Z,18.05
2022-11-18T09:12:29.188Z,18.05
2022-11-18T09:17:50.848Z,18.06
2022-11-18T09:23:12.552Z,18.12
2022-11-18T09:28:34.851Z,18.22
2022-11-18T09:33:59.454Z,18.40
2022-11-18T09:39:21.285Z,18.58
2022-11-18T09:45:02.867Z,18.71
2022-11-18T09:56:14.727Z,18.82
2022-11-18T10:01:37.087Z,18.80
2022-11-18T10:06:58.911Z,18.77
2022-11-18T10:12:26.261Z,18.74
2022-11-18T10:24:19.148Z,18.68
2022-11-18T10:29:42.629Z,18.61
2022-11-18T10:35:22.286Z,18.56
2022-11-18T10:41:13.825Z,18.54
2022-11-18T10:46:39.477Z,18.49
2022-11-18T10:52:11.321Z,18.47
2022-11-18T10:57:39.203Z,18.43
2022-11-18T11:03:01.628Z,18.39
2022-11-18T11:08:39.340Z,18.37
2022-11-18T11:14:24.077Z,18.35
2022-11-18T11:20:06.091Z,18.31
2022-11-18T11:32:15.660Z,18.24
2022-11-18T11:37:58.420Z,18.20
2022-11-18T11:43:42.613Z,18.17
2022-11-18T11:49:24.580Z,18.15
2022-11-18T11:54:55.555Z,18.12
2022-11-18T12:00:19.955Z,18.08
2022-11-18T12:05:43.394Z,18.07
2022-11-18T12:11:16.951Z,18.06
2022-11-18T12:16:52.120Z,18.04
2022-11-18T12:22:14.459Z,18.01
2022-11-18T12:27:40.067Z,18.05
2022-11-18T12:33:01.628Z,18.07
2022-11-18T12:38:32.591Z,18.21
2022-11-18T12:44:01.323Z,18.32
2022-11-18T12:49:23.073Z,18.40
2022-11-18T12:54:48.255Z,18.45
2022-11-18T13:00:52.817Z,18.46
2022-11-18T13:06:24.427Z,18.46
2022-11-18T13:11:51.413Z,18.43
2022-11-18T13:18:03.808Z,18.41
2022-11-18T13:23:54.842Z,18.38
2022-11-18T13:29:31.485Z,18.33
2022-11-18T13:34:58.550Z,18.28
2022-11-18T13:40:29.546Z,18.25
2022-11-18T13:45:51.286Z,18.20
2022-11-18T13:51:13.295Z,18.18
2022-11-18T13:56:35.489Z,18.16
2022-11-18T14:02:00.109Z,18.18
2022-11-18T14:07:27.938Z,18.20
2022-11-18T14:12:58.139Z,18.22
2022-11-18T14:18:27.311Z,18.21
2022-11-18T14:23:48.972Z,18.20
2022-11-18T14:29:23.404Z,18.17
2022-11-18T14:34:45.145Z,18.12
2022-11-18T14:40:13.854Z,18.13
2022-11-18T14:45:35.654Z,18.20
2022-11-18T14:50:57.330Z,18.35
2022-11-18T14:56:28.972Z,18.55
2022-11-18T15:01:51.074Z,18.69
2022-11-18T15:07:18.584Z,18.82
2022-11-18T15:12:44.646Z,18.92
2022-11-18T15:18:06.309Z,19.01
2022-11-18T15:23:29.867Z,19.04
2022-11-18T15:28:53.969Z,19.03
2022-11-18T15:34:17.466Z,18.98
2022-11-18T15:39:39.393Z,18.92
2022-11-18T15:45:01.099Z,18.86
2022-11-18T15:50:22.801Z,18.81
2022-11-18T15:55:44.455Z,18.76
2022-11-18T16:01:06.201Z,18.72
2022-11-18T16:06:28.133Z,18.67
2022-11-18T16:12:10.145Z,18.60
2022-11-18T16:17:31.912Z,18.55
2022-11-18T16:22:55.265Z,18.51
2022-11-18T16:28:16.968Z,18.50
2022-11-18T16:33:38.719Z,18.48
2022-11-18T16:39:11.765Z,18.45
2022-11-18T16:44:33.463Z,18.42
2022-11-18T16:49:55.140Z,18.40
2022-11-18T16:55:16.959Z,18.38
2022-11-18T17:01:15.923Z,18.35
2022-11-18T17:06:21.847Z,18.34
2022-11-18T17:11:44.035Z,18.31
2022-11-18T17:17:06.293Z,18.29
2022-11-18T17:22:28.016Z,18.30
2022-11-18T17:27:49.624Z,18.47
2022-11-18T17:33:11.365Z,18.75
2022-11-18T17:38:37.917Z,19.06
2022-11-18T17:44:00.582Z,19.30
2022-11-18T17:49:22.610Z,19.47
2022-11-18T17:54:44.373Z,19.63
2022-11-18T18:00:06.731Z,19.79
2022-11-18T18:05:28.773Z,19.98
2022-11-18T18:10:50.447Z,20.16
2022-11-18T18:16:12.121Z,20.27
2022-11-18T18:21:35.774Z,20.33
2022-11-18T18:26:57.419Z,20.37
2022-11-18T18:32:19.146Z,20.39
2022-11-18T18:37:40.792Z,20.37
2022-11-18T18:43:02.431Z,20.33
2022-11-18T18:48:24.105Z,20.25
2022-11-18T18:53:45.779Z,20.17
2022-11-18T18:59:09.299Z,20.10
2022-11-18T19:04:31.092Z,20.00
2022-11-18T19:09:52.752Z,19.90
2022-11-18T19:15:14.759Z,19.83
2022-11-18T19:20:39.236Z,19.74
2022-11-18T19:26:01.335Z,19.66
2022-11-18T19:31:23.366Z,19.61
2022-11-18T19:36:45.049Z,19.60
2022-11-18T19:42:06.726Z,19.65
2022-11-18T19:47:29.331Z,19.92
2022-11-18T19:52:50.985Z,20.41
2022-11-18T19:58:12.631Z,20.87
2022-11-18T20:03:34.266Z,21.32
2022-11-18T20:08:57.049Z,21.70
2022-11-18T20:14:18.876Z,21.95
2022-11-18T20:19:40.513Z,22.00
2022-11-18T20:25:02.354Z,21.96
2022-11-18T20:30:24.008Z,21.86
2022-11-18T20:35:45.724Z,21.73
2022-11-18T20:41:10.323Z,21.61
2022-11-18T20:46:33.442Z,21.46
2022-11-18T20:51:55.170Z,21.32
2022-11-18T20:57:16.978Z,21.17
2022-11-18T21:02:38.879Z,21.03
2022-11-18T21:08:00.558Z,20.86
2022-11-18T21:13:40.664Z,20.75
2022-11-18T21:19:02.370Z,20.64
2022-11-18T21:24:28.836Z,20.54
2022-11-18T21:29:50.579Z,20.43
2022-11-18T21:35:12.292Z,20.33
2022-11-18T21:40:33.955Z,20.24
2022-11-18T21:45:55.599Z,20.18
2022-11-18T21:51:20.239Z,20.11
2022-11-18T21:56:41.887Z,20.04
2022-11-18T22:02:03.506Z,19.96
2022-11-18T22:07:25.657Z,19.94
2022-11-18T22:12:49.019Z,19.90
2022-11-18T22:18:10.837Z,19.86
2022-11-18T22:23:33.620Z,19.81
2022-11-18T22:28:57.821Z,19.78
2022-11-18T22:34:19.559Z,19.77
2022-11-18T22:39:41.253Z,19.85
2022-11-18T22:45:02.906Z,20.03
2022-11-18T22:50:24.598Z,20.19
2022-11-18T22:55:46.248Z,20.32
2022-11-18T23:01:17.299Z,20.41
2022-11-18T23:06:39.023Z,20.39
2022-11-18T23:12:19.028Z,20.35
2022-11-18T23:17:40.668Z,20.29
2022-11-18T23:23:02.323Z,20.21
2022-11-18T23:28:24.114Z,20.13
2022-11-18T23:33:46.265Z,20.06
2022-11-18T23:39:08.459Z,19.98
2022-11-18T23:44:50.298Z,19.90
2022-11-18T23:50:11.997Z,19.81
2022-11-18T23:55:34.290Z,19.75
